Terminal Aerodrome Forecast
Issued by NWS

Home | Current Version | Previous Version | Text Only | Print | Product List | Glossary Off
Versions: 1 2 3 4 5 6 7 8 9 10 11 12 13 14 15 16 17 18 19

000
FTUS43 KGRB 291500 AAA
TAFATW
TAF AMD
KATW 291504Z 2915/3012 30011G17KT P6SM BKN024
      TEMPO 2915/2916 SCT024 BKN060
     FM291600 30011KT P6SM BKN035 OVC050
     FM292200 28004KT P6SM BKN035=

USA.gov is the U.S. government's official web portal to all federal, state and local government web resources and services.